sensor_id;sensor_type;location;lat;lon;timestamp;pressure;altitude;pressure_sealevel;temperature;humidity
35443;BME280;21561;55.654;37.592;2024-03-08T00:00:00;99412.31;;;-4.26;82.40
35443;BME280;21561;55.654;37.592;2024-03-08T00:02:36;99415.44;;;-4.31;83.35
35443;BME280;21561;55.654;37.592;2024-03-08T00:05:07;99418.31;;;-4.42;83.91
35443;BME280;21561;55.654;37.592;2024-03-08T00:07:36;99401.72;;;-4.53;83.29
35443;BME280;21561;55.654;37.592;2024-03-08T00:10:04;99397.28;;;-4.41;84.16
35443;BME280;21561;55.654;37.592;2024-03-08T00:12:31;99398.84;;;-4.43;82.69
35443;BME280;21561;55.654;37.592;2024-03-08T00:14:58;99389.94;;;-4.34;82.33
35443;BME280;21561;55.654;37.592;2024-03-08T00:17:26;99389.50;;;-4.44;83.30
35443;BME280;21561;55.654;37.592;2024-03-08T00:19:54;99384.94;;;-4.51;82.58
35443;BME280;21561;55.654;37.592;2024-03-08T00:22:21;99392.75;;;-4.64;82.76
35443;BME280;21561;55.654;37.592;2024-03-08T00:24:49;99386.94;;;-4.62;83.28
35443;BME280;21561;55.654;37.592;2024-03-08T00:27:18;99373.66;;;-4.57;82.94
35443;BME280;21561;55.654;37.592;2024-03-08T00:29:48;99377.59;;;-4.28;82.97
35443;BME280;21561;55.654;37.592;2024-03-08T00:32:15;99375.91;;;-4.10;82.15
35443;BME280;21561;55.654;37.592;2024-03-08T00:34:43;99371.00;;;-4.07;79.48
35443;BME280;21561;55.654;37.592;2024-03-08T00:37:10;99371.09;;;-4.23;79.93
35443;BME280;21561;55.654;37.592;2024-03-08T00:39:37;99371.50;;;-4.32;80.05
35443;BME280;21561;55.654;37.592;2024-03-08T00:42:04;99375.41;;;-4.38;79.88
35443;BME280;21561;55.654;37.592;2024-03-08T00:44:31;99354.28;;;-4.57;81.14
35443;BME280;21561;55.654;37.592;2024-03-08T00:46:58;99359.63;;;-4.51;81.58
35443;BME280;21561;55.654;37.592;2024-03-08T00:49:26;99354.88;;;-4.45;80.37
35443;BME280;21561;55.654;37.592;2024-03-08T00:51:52;99350.81;;;-4.59;81.40
35443;BME280;21561;55.654;37.592;2024-03-08T00:54:20;99344.97;;;-4.74;82.06
35443;BME280;21561;55.654;37.592;2024-03-08T00:56:47;99349.59;;;-4.84;82.94
35443;BME280;21561;55.654;37.592;2024-03-08T00:59:14;99347.41;;;-4.94;83.41
35443;BME280;21561;55.654;37.592;2024-03-08T01:01:41;99340.63;;;-4.95;84.46
35443;BME280;21561;55.654;37.592;2024-03-08T01:04:08;99342.75;;;-5.03;84.01
35443;BME280;21561;55.654;37.592;2024-03-08T01:06:34;99324.41;;;-4.99;85.24
35443;BME280;21561;55.654;37.592;2024-03-08T01:09:01;99329.34;;;-4.84;83.74
35443;BME280;21561;55.654;37.592;2024-03-08T01:11:28;99323.00;;;-4.75;83.69
35443;BME280;21561;55.654;37.592;2024-03-08T01:13:55;99325.59;;;-4.74;83.28
35443;BME280;21561;55.654;37.592;2024-03-08T01:16:22;99320.47;;;-4.75;83.58
35443;BME280;21561;55.654;37.592;2024-03-08T01:18:49;99318.88;;;-4.73;83.56
35443;BME280;21561;55.654;37.592;2024-03-08T01:21:17;99316.06;;;-4.62;83.46
35443;BME280;21561;55.654;37.592;2024-03-08T01:23:44;99316.06;;;-4.44;84.63
35443;BME280;21561;55.654;37.592;2024-03-08T01:26:11;99323.38;;;-4.32;83.14
35443;BME280;21561;55.654;37.592;2024-03-08T01:28:38;99312.91;;;-4.39;82.42
35443;BME280;21561;55.654;37.592;2024-03-08T01:31:05;99308.25;;;-4.30;83.82
35443;BME280;21561;55.654;37.592;2024-03-08T01:33:33;99302.94;;;-4.17;83.36
35443;BME280;21561;55.654;37.592;2024-03-08T01:36:00;99306.94;;;-4.22;82.95
35443;BME280;21561;55.654;37.592;2024-03-08T01:38:27;99304.41;;;-4.22;82.30
35443;BME280;21561;55.654;37.592;2024-03-08T01:40:54;99308.69;;;-4.21;81.92
35443;BME280;21561;55.654;37.592;2024-03-08T01:43:29;99304.97;;;-4.10;82.05
35443;BME280;21561;55.654;37.592;2024-03-08T01:45:58;99298.16;;;-4.11;80.85
35443;BME280;21561;55.654;37.592;2024-03-08T01:48:28;99293.75;;;-4.15;81.45
35443;BME280;21561;55.654;37.592;2024-03-08T01:50:57;99298.69;;;-4.18;81.44
35443;BME280;21561;55.654;37.592;2024-03-08T01:53:24;99291.91;;;-4.37;81.67
35443;BME280;21561;55.654;37.592;2024-03-08T01:55:57;99283.50;;;-4.36;82.24
35443;BME280;21561;55.654;37.592;2024-03-08T01:58:27;99303.47;;;-4.24;81.59
35443;BME280;21561;55.654;37.592;2024-03-08T02:00:59;99296.38;;;-4.31;82.27
35443;BME280;21561;55.654;37.592;2024-03-08T02:03:26;99288.09;;;-4.27;81.77
35443;BME280;21561;55.654;37.592;2024-03-08T02:05:54;99292.16;;;-4.31;83.50
35443;BME280;21561;55.654;37.592;2024-03-08T02:08:21;99305.22;;;-4.23;83.09
35443;BME280;21561;55.654;37.592;2024-03-08T02:10:49;99288.94;;;-4.28;81.70
35443;BME280;21561;55.654;37.592;2024-03-08T02:13:17;99295.00;;;-4.43;82.01
35443;BME280;21561;55.654;37.592;2024-03-08T02:15:56;99288.34;;;-4.41;81.36
35443;BME280;21561;55.654;37.592;2024-03-08T02:18:45;99284.53;;;-4.68;82.73
35443;BME280;21561;55.654;37.592;2024-03-08T02:21:12;99276.72;;;-4.73;83.71
35443;BME280;21561;55.654;37.592;2024-03-08T02:23:40;99274.84;;;-4.77;83.33
35443;BME280;21561;55.654;37.592;2024-03-08T02:26:07;99278.88;;;-4.99;85.26
35443;BME280;21561;55.654;37.592;2024-03-08T02:28:34;99270.44;;;-5.15;85.82
35443;BME280;21561;55.654;37.592;2024-03-08T02:31:01;99280.78;;;-5.11;85.35
35443;BME280;21561;55.654;37.592;2024-03-08T02:33:29;99280.13;;;-5.07;85.32
35443;BME280;21561;55.654;37.592;2024-03-08T02:35:56;99277.56;;;-5.25;86.09
35443;BME280;21561;55.654;37.592;2024-03-08T02:38:24;99273.16;;;-5.29;87.48
35443;BME280;21561;55.654;37.592;2024-03-08T02:40:53;99279.94;;;-5.28;86.67
35443;BME280;21561;55.654;37.592;2024-03-08T02:43:22;99271.44;;;-5.12;86.45
35443;BME280;21561;55.654;37.592;2024-03-08T02:45:50;99271.19;;;-5.00;86.50
35443;BME280;21561;55.654;37.592;2024-03-08T02:48:20;99269.44;;;-5.01;86.84
35443;BME280;21561;55.654;37.592;2024-03-08T02:50:49;99264.25;;;-5.04;85.03
35443;BME280;21561;55.654;37.592;2024-03-08T02:53:18;99262.22;;;-5.11;86.01
35443;BME280;21561;55.654;37.592;2024-03-08T02:55:49;99260.72;;;-5.24;86.39
35443;BME280;21561;55.654;37.592;2024-03-08T02:58:16;99265.50;;;-5.30;86.97
35443;BME280;21561;55.654;37.592;2024-03-08T03:00:43;99264.72;;;-5.46;87.80
35443;BME280;21561;55.654;37.592;2024-03-08T03:03:10;99264.78;;;-5.44;88.44
35443;BME280;21561;55.654;37.592;2024-03-08T03:05:37;99253.34;;;-5.38;87.73
35443;BME280;21561;55.654;37.592;2024-03-08T03:08:04;99250.69;;;-5.23;88.69
35443;BME280;21561;55.654;37.592;2024-03-08T03:10:36;99250.47;;;-5.27;87.19
35443;BME280;21561;55.654;37.592;2024-03-08T03:13:04;99252.75;;;-5.32;88.83
35443;BME280;21561;55.654;37.592;2024-03-08T03:15:32;99246.53;;;-5.39;87.89
35443;BME280;21561;55.654;37.592;2024-03-08T03:18:00;99239.59;;;-5.43;87.92
35443;BME280;21561;55.654;37.592;2024-03-08T03:20:28;99235.25;;;-5.45;87.96
35443;BME280;21561;55.654;37.592;2024-03-08T03:23:08;99228.63;;;-5.43;88.06
35443;BME280;21561;55.654;37.592;2024-03-08T03:25:35;99231.28;;;-5.40;87.85
35443;BME280;21561;55.654;37.592;2024-03-08T03:28:03;99235.72;;;-5.36;87.33
35443;BME280;21561;55.654;37.592;2024-03-08T03:30:31;99230.66;;;-5.36;87.70
35443;BME280;21561;55.654;37.592;2024-03-08T03:33:01;99229.44;;;-5.61;88.98
35443;BME280;21561;55.654;37.592;2024-03-08T03:35:29;99229.94;;;-5.84;91.09
35443;BME280;21561;55.654;37.592;2024-03-08T03:37:56;99237.94;;;-6.09;91.51
35443;BME280;21561;55.654;37.592;2024-03-08T03:40:49;99232.28;;;-6.37;93.55
35443;BME280;21561;55.654;37.592;2024-03-08T03:43:19;99229.69;;;-6.38;94.19
35443;BME280;21561;55.654;37.592;2024-03-08T03:45:46;99222.84;;;-6.24;94.39
35443;BME280;21561;55.654;37.592;2024-03-08T03:48:13;99223.78;;;-6.39;93.75
35443;BME280;21561;55.654;37.592;2024-03-08T03:50:40;99212.38;;;-6.47;95.36
35443;BME280;21561;55.654;37.592;2024-03-08T03:53:07;99205.06;;;-6.42;94.11
35443;BME280;21561;55.654;37.592;2024-03-08T03:55:37;99214.16;;;-6.29;95.57
35443;BME280;21561;55.654;37.592;2024-03-08T03:58:07;99208.94;;;-6.32;95.03
35443;BME280;21561;55.654;37.592;2024-03-08T04:00:37;99215.03;;;-6.29;95.17
35443;BME280;21561;55.654;37.592;2024-03-08T04:03:04;99210.34;;;-6.21;94.41
35443;BME280;21561;55.654;37.592;2024-03-08T04:05:31;99216.69;;;-6.13;93.89
35443;BME280;21561;55.654;37.592;2024-03-08T04:07:58;99209.13;;;-6.13;93.99
35443;BME280;21561;55.654;37.592;2024-03-08T04:10:25;99215.38;;;-6.06;97.14
35443;BME280;21561;55.654;37.592;2024-03-08T04:12:52;99209.97;;;-5.96;94.21
35443;BME280;21561;55.654;37.592;2024-03-08T04:15:19;99193.88;;;-5.98;94.81
35443;BME280;21561;55.654;37.592;2024-03-08T04:17:47;99202.94;;;-6.02;94.75
35443;BME280;21561;55.654;37.592;2024-03-08T04:20:14;99197.38;;;-5.95;95.11
35443;BME280;21561;55.654;37.592;2024-03-08T04:22:42;99185.59;;;-5.96;93.67
35443;BME280;21561;55.654;37.592;2024-03-08T04:25:11;99198.47;;;-6.07;94.39
35443;BME280;21561;55.654;37.592;2024-03-08T04:27:38;99189.13;;;-6.08;94.23
35443;BME280;21561;55.654;37.592;2024-03-08T04:30:05;99191.34;;;-5.98;94.22
35443;BME280;21561;55.654;37.592;2024-03-08T04:32:35;99195.31;;;-5.85;94.22
35443;BME280;21561;55.654;37.592;2024-03-08T04:35:02;99196.81;;;-5.89;94.13
35443;BME280;21561;55.654;37.592;2024-03-08T04:37:31;99196.75;;;-5.90;95.18
35443;BME280;21561;55.654;37.592;2024-03-08T04:39:58;99188.81;;;-5.98;95.46
35443;BME280;21561;55.654;37.592;2024-03-08T04:42:29;99187.03;;;-6.01;95.06
35443;BME280;21561;55.654;37.592;2024-03-08T04:44:59;99194.50;;;-6.02;95.36
35443;BME280;21561;55.654;37.592;2024-03-08T04:47:30;99183.00;;;-5.97;94.80
35443;BME280;21561;55.654;37.592;2024-03-08T04:49:57;99197.25;;;-5.98;96.50
35443;BME280;21561;55.654;37.592;2024-03-08T04:52:25;99183.69;;;-6.00;95.96
35443;BME280;21561;55.654;37.592;2024-03-08T04:54:52;99185.59;;;-5.96;95.77
35443;BME280;21561;55.654;37.592;2024-03-08T04:57:19;99187.75;;;-5.85;95.50
35443;BME280;21561;55.654;37.592;2024-03-08T04:59:46;99188.03;;;-5.97;96.78
35443;BME280;21561;55.654;37.592;2024-03-08T05:02:14;99174.88;;;-6.08;97.81
35443;BME280;21561;55.654;37.592;2024-03-08T05:04:41;99180.47;;;-6.13;98.01
35443;BME280;21561;55.654;37.592;2024-03-08T05:07:09;99178.41;;;-6.21;98.47
35443;BME280;21561;55.654;37.592;2024-03-08T05:09:36;99182.09;;;-6.14;98.45
35443;BME280;21561;55.654;37.592;2024-03-08T05:12:04;99183.69;;;-6.16;99.65
35443;BME280;21561;55.654;37.592;2024-03-08T05:14:31;99174.41;;;-6.17;100.00
35443;BME280;21561;55.654;37.592;2024-03-08T05:16:58;99178.00;;;-6.12;100.00
35443;BME280;21561;55.654;37.592;2024-03-08T05:19:27;99179.28;;;-6.04;100.00
35443;BME280;21561;55.654;37.592;2024-03-08T05:22:00;99178.00;;;-6.12;100.00
35443;BME280;21561;55.654;37.592;2024-03-08T05:24:27;99176.44;;;-6.10;100.00
35443;BME280;21561;55.654;37.592;2024-03-08T05:26:55;99164.03;;;-6.05;100.00
35443;BME280;21561;55.654;37.592;2024-03-08T05:29:22;99161.28;;;-6.10;100.00
35443;BME280;21561;55.654;37.592;2024-03-08T05:31:51;99159.44;;;-5.96;100.00
35443;BME280;21561;55.654;37.592;2024-03-08T05:34:19;99153.38;;;-6.00;100.00
35443;BME280;21561;55.654;37.592;2024-03-08T05:36:48;99158.22;;;-5.86;100.00
35443;BME280;21561;55.654;37.592;2024-03-08T05:39:18;99157.75;;;-5.79;100.00
35443;BME280;21561;55.654;37.592;2024-03-08T05:41:47;99161.09;;;-5.62;100.00
35443;BME280;21561;55.654;37.592;2024-03-08T05:44:14;99156.19;;;-5.59;100.00
35443;BME280;21561;55.654;37.592;2024-03-08T05:46:44;99163.69;;;-5.61;100.00
35443;BME280;21561;55.654;37.592;2024-03-08T05:49:13;99166.56;;;-5.71;100.00
35443;BME280;21561;55.654;37.592;2024-03-08T05:51:40;99165.53;;;-5.75;100.00
35443;BME280;21561;55.654;37.592;2024-03-08T05:54:10;99166.81;;;-5.66;100.00
35443;BME280;21561;55.654;37.592;2024-03-08T05:56:41;99167.91;;;-5.61;100.00
35443;BME280;21561;55.654;37.592;2024-03-08T05:59:12;99168.31;;;-5.70;100.00
35443;BME280;21561;55.654;37.592;2024-03-08T06:01:40;99166.72;;;-5.68;100.00
35443;BME280;21561;55.654;37.592;2024-03-08T06:04:09;99173.81;;;-5.61;100.00
35443;BME280;21561;55.654;37.592;2024-03-08T06:06:39;99167.28;;;-5.73;100.00
35443;BME280;21561;55.654;37.592;2024-03-08T06:09:07;99166.28;;;-5.93;100.00
35443;BME280;21561;55.654;37.592;2024-03-08T06:11:44;99166.94;;;-5.98;100.00
35443;BME280;21561;55.654;37.592;2024-03-08T06:14:11;99157.72;;;-5.97;100.00
35443;BME280;21561;55.654;37.592;2024-03-08T06:16:38;99161.75;;;-6.01;100.00
35443;BME280;21561;55.654;37.592;2024-03-08T06:19:05;99153.66;;;-5.93;100.00
35443;BME280;21561;55.654;37.592;2024-03-08T06:21:32;99156.06;;;-5.97;100.00
35443;BME280;21561;55.654;37.592;2024-03-08T06:23:59;99158.72;;;-5.93;100.00
35443;BME280;21561;55.654;37.592;2024-03-08T06:26:27;99151.66;;;-5.83;100.00
35443;BME280;21561;55.654;37.592;2024-03-08T06:28:58;99146.81;;;-5.78;100.00
35443;BME280;21561;55.654;37.592;2024-03-08T06:31:26;99148.88;;;-5.71;100.00
35443;BME280;21561;55.654;37.592;2024-03-08T06:33:53;99147.44;;;-5.66;100.00
35443;BME280;21561;55.654;37.592;2024-03-08T06:36:24;99148.53;;;-5.61;100.00
35443;BME280;21561;55.654;37.592;2024-03-08T06:38:52;99146.66;;;-5.65;100.00
35443;BME280;21561;55.654;37.592;2024-03-08T06:41:19;99153.44;;;-5.64;100.00
35443;BME280;21561;55.654;37.592;2024-03-08T06:43:47;99158.66;;;-5.61;100.00
35443;BME280;21561;55.654;37.592;2024-03-08T06:46:19;99152.16;;;-5.56;100.00
35443;BME280;21561;55.654;37.592;2024-03-08T06:48:48;99155.91;;;-5.47;100.00
35443;BME280;21561;55.654;37.592;2024-03-08T06:51:17;99152.75;;;-5.43;100.00
35443;BME280;21561;55.654;37.592;2024-03-08T06:53:45;99153.84;;;-5.38;100.00
35443;BME280;21561;55.654;37.592;2024-03-08T06:56:12;99152.25;;;-5.36;100.00
35443;BME280;21561;55.654;37.592;2024-03-08T06:58:39;99146.53;;;-5.32;99.98
35443;BME280;21561;55.654;37.592;2024-03-08T07:01:06;99146.38;;;-5.35;100.00
35443;BME280;21561;55.654;37.592;2024-03-08T07:03:41;99149.56;;;-5.39;100.00
35443;BME280;21561;55.654;37.592;2024-03-08T07:06:11;99149.56;;;-5.39;100.00
35443;BME280;21561;55.654;37.592;2024-03-08T07:08:38;99153.03;;;-5.37;100.00
35443;BME280;21561;55.654;37.592;2024-03-08T07:11:05;99152.38;;;-5.33;100.00
35443;BME280;21561;55.654;37.592;2024-03-08T07:13:32;99145.25;;;-5.24;100.00
35443;BME280;21561;55.654;37.592;2024-03-08T07:15:59;99133.69;;;-5.19;99.99
35443;BME280;21561;55.654;37.592;2024-03-08T07:18:28;99150.16;;;-5.09;99.66
35443;BME280;21561;55.654;37.592;2024-03-08T07:20:57;99153.63;;;-5.07;99.62
35443;BME280;21561;55.654;37.592;2024-03-08T07:23:24;99148.88;;;-5.01;99.29
35443;BME280;21561;55.654;37.592;2024-03-08T07:26:10;99150.66;;;-4.98;99.28
35443;BME280;21561;55.654;37.592;2024-03-08T07:28:37;99148.72;;;-4.86;99.03
35443;BME280;21561;55.654;37.592;2024-03-08T07:31:04;99148.56;;;-4.89;98.74
35443;BME280;21561;55.654;37.592;2024-03-08T07:33:49;99144.81;;;-4.79;98.49
35443;BME280;21561;55.654;37.592;2024-03-08T07:36:17;99149.97;;;-4.76;98.43
35443;BME280;21561;55.654;37.592;2024-03-08T07:38:44;99145.94;;;-4.72;98.05
35443;BME280;21561;55.654;37.592;2024-03-08T07:41:15;99154.34;;;-4.73;98.44
35443;BME280;21561;55.654;37.592;2024-03-08T07:43:42;99148.75;;;-4.66;98.02
35443;BME280;21561;55.654;37.592;2024-03-08T07:46:12;99136.50;;;-4.57;97.59
35443;BME280;21561;55.654;37.592;2024-03-08T07:48:40;99147.22;;;-4.63;97.34
35443;BME280;21561;55.654;37.592;2024-03-08T07:51:07;99142.25;;;-4.61;97.32
35443;BME280;21561;55.654;37.592;2024-03-08T07:53:36;99141.72;;;-4.54;99.02
35443;BME280;21561;55.654;37.592;2024-03-08T07:56:05;99138.84;;;-4.42;99.03
35443;BME280;21561;55.654;37.592;2024-03-08T07:58:32;99144.22;;;-4.34;97.96
35443;BME280;21561;55.654;37.592;2024-03-08T08:01:01;99140.44;;;-4.25;96.60
35443;BME280;21561;55.654;37.592;2024-03-08T08:03:28;99132.53;;;-4.32;96.19
35443;BME280;21561;55.654;37.592;2024-03-08T08:05:55;99133.47;;;-4.30;96.23
35443;BME280;21561;55.654;37.592;2024-03-08T08:08:22;99131.31;;;-4.21;96.30
35443;BME280;21561;55.654;37.592;2024-03-08T08:10:49;99133.69;;;-4.05;96.15
35443;BME280;21561;55.654;37.592;2024-03-08T08:13:16;99129.09;;;-3.94;96.30
35443;BME280;21561;55.654;37.592;2024-03-08T08:15:44;99130.09;;;-3.90;95.33
35443;BME280;21561;55.654;37.592;2024-03-08T08:18:12;99121.56;;;-3.92;95.05
35443;BME280;21561;55.654;37.592;2024-03-08T08:20:40;99128.41;;;-3.90;94.83
35443;BME280;21561;55.654;37.592;2024-03-08T08:23:07;99131.00;;;-3.88;95.17
35443;BME280;21561;55.654;37.592;2024-03-08T08:25:35;99133.13;;;-3.78;94.83
35443;BME280;21561;55.654;37.592;2024-03-08T08:28:02;99133.28;;;-3.75;95.33
35443;BME280;21561;55.654;37.592;2024-03-08T08:30:31;99128.44;;;-3.69;94.65
35443;BME280;21561;55.654;37.592;2024-03-08T08:33:00;99133.66;;;-3.66;94.92
35443;BME280;21561;55.654;37.592;2024-03-08T08:35:27;99135.63;;;-3.58;94.44
35443;BME280;21561;55.654;37.592;2024-03-08T08:37:55;99131.50;;;-3.56;94.05
35443;BME280;21561;55.654;37.592;2024-03-08T08:40:22;99124.81;;;-3.54;94.19
35443;BME280;21561;55.654;37.592;2024-03-08T08:42:51;99123.25;;;-3.51;94.17
35443;BME280;21561;55.654;37.592;2024-03-08T08:45:24;99130.16;;;-3.47;93.82
35443;BME280;21561;55.654;37.592;2024-03-08T08:47:53;99116.22;;;-3.37;93.31
35443;BME280;21561;55.654;37.592;2024-03-08T08:50:21;99127.06;;;-3.39;93.44
35443;BME280;21561;55.654;37.592;2024-03-08T08:52:52;99126.91;;;-3.44;93.53
35443;BME280;21561;55.654;37.592;2024-03-08T08:55:22;99134.66;;;-3.41;93.78
35443;BME280;21561;55.654;37.592;2024-03-08T08:57:53;99128.06;;;-3.36;93.56
35443;BME280;21561;55.654;37.592;2024-03-08T09:00:21;99134.75;;;-3.38;93.90
35443;BME280;21561;55.654;37.592;2024-03-08T09:02:50;99121.41;;;-3.34;94.59
35443;BME280;21561;55.654;37.592;2024-03-08T09:05:17;99130.94;;;-3.28;93.75
35443;BME280;21561;55.654;37.592;2024-03-08T09:07:44;99124.13;;;-3.29;93.73
35443;BME280;21561;55.654;37.592;2024-03-08T09:10:12;99130.16;;;-3.26;93.72
35443;BME280;21561;55.654;37.592;2024-03-08T09:12:42;99119.28;;;-3.23;93.61
35443;BME280;21561;55.654;37.592;2024-03-08T09:15:09;99126.09;;;-3.22;93.84
35443;BME280;21561;55.654;37.592;2024-03-08T09:17:39;99122.13;;;-3.15;93.63
35443;BME280;21561;55.654;37.592;2024-03-08T09:20:07;99128.81;;;-3.17;93.94
35443;BME280;21561;55.654;37.592;2024-03-08T09:22:35;99113.69;;;-3.14;93.53
35443;BME280;21561;55.654;37.592;2024-03-08T09:25:06;99117.19;;;-3.12;93.26
35443;BME280;21561;55.654;37.592;2024-03-08T09:27:34;99114.06;;;-3.05;93.53
35443;BME280;21561;55.654;37.592;2024-03-08T09:30:06;99108.56;;;-2.93;93.21
35443;BME280;21561;55.654;37.592;2024-03-08T09:32:34;99115.75;;;-2.83;92.78
35443;BME280;21561;55.654;37.592;2024-03-08T09:35:01;99107.13;;;-2.86;93.04
35443;BME280;21561;55.654;37.592;2024-03-08T09:37:29;99105.19;;;-2.94;93.71
35443;BME280;21561;55.654;37.592;2024-03-08T09:39:57;99108.84;;;-2.85;93.64
35443;BME280;21561;55.654;37.592;2024-03-08T09:42:26;99114.88;;;-2.83;93.29
35443;BME280;21561;55.654;37.592;2024-03-08T09:44:53;99106.69;;;-2.76;93.41
35443;BME280;21561;55.654;37.592;2024-03-08T09:47:22;99107.03;;;-2.67;93.08
35443;BME280;21561;55.654;37.592;2024-03-08T09:49:52;99107.03;;;-2.67;93.31
35443;BME280;21561;55.654;37.592;2024-03-08T09:52:21;99108.22;;;-2.57;92.71
35443;BME280;21561;55.654;37.592;2024-03-08T09:54:48;99105.25;;;-2.45;92.72
35443;BME280;21561;55.654;37.592;2024-03-08T09:57:16;99108.78;;;-2.42;92.08
35443;BME280;21561;55.654;37.592;2024-03-08T09:59:46;99095.53;;;-2.33;92.19
35443;BME280;21561;55.654;37.592;2024-03-08T10:02:15;99100.22;;;-2.20;92.35
35443;BME280;21561;55.654;37.592;2024-03-08T10:04:43;99107.25;;;-2.13;91.09
35443;BME280;21561;55.654;37.592;2024-03-08T10:07:13;99103.81;;;-2.15;91.22
35443;BME280;21561;55.654;37.592;2024-03-08T10:09:40;99107.38;;;-2.09;91.13
35443;BME280;21561;55.654;37.592;2024-03-08T10:12:15;99104.44;;;-1.96;90.98
35443;BME280;21561;55.654;37.592;2024-03-08T10:14:42;99101.88;;;-1.96;90.42
35443;BME280;21561;55.654;37.592;2024-03-08T10:17:09;99096.31;;;-1.86;90.31
35443;BME280;21561;55.654;37.592;2024-03-08T10:19:36;99104.66;;;-1.90;90.27
35443;BME280;21561;55.654;37.592;2024-03-08T10:22:03;99110.47;;;-1.93;90.56
35443;BME280;21561;55.654;37.592;2024-03-08T10:24:31;99095.88;;;-1.98;90.77
35443;BME280;21561;55.654;37.592;2024-03-08T10:27:03;99100.66;;;-2.07;91.23
35443;BME280;21561;55.654;37.592;2024-03-08T10:29:32;99098.47;;;-2.21;92.18
35443;BME280;21561;55.654;37.592;2024-03-08T10:31:59;99088.22;;;-2.24;92.52
35443;BME280;21561;55.654;37.592;2024-03-08T10:34:27;99091.03;;;-2.16;92.41
35443;BME280;21561;55.654;37.592;2024-03-08T10:36:59;99092.13;;;-2.09;92.58
35443;BME280;21561;55.654;37.592;2024-03-08T10:39:35;99093.09;;;-2.06;92.38
35443;BME280;21561;55.654;37.592;2024-03-08T10:42:04;99078.81;;;-2.02;92.43
35443;BME280;21561;55.654;37.592;2024-03-08T10:44:53;99094.56;;;-1.87;92.19
35443;BME280;21561;55.654;37.592;2024-03-08T10:47:29;99077.66;;;-1.85;91.51
35443;BME280;21561;55.654;37.592;2024-03-08T10:52:43;99084.69;;;-1.78;91.41
35443;BME280;21561;55.654;37.592;2024-03-08T10:55:11;99082.97;;;-1.79;91.64
35443;BME280;21561;55.654;37.592;2024-03-08T10:57:40;99088.81;;;-1.81;91.86
35443;BME280;21561;55.654;37.592;2024-03-08T11:00:09;99074.72;;;-1.71;91.96
35443;BME280;21561;55.654;37.592;2024-03-08T11:02:38;99082.66;;;-1.62;91.56
35443;BME280;21561;55.654;37.592;2024-03-08T11:05:10;99092.09;;;-1.58;91.73
35443;BME280;21561;55.654;37.592;2024-03-08T11:07:43;99094.13;;;-1.75;91.83
35443;BME280;21561;55.654;37.592;2024-03-08T11:10:19;99075.91;;;-1.87;92.86
35443;BME280;21561;55.654;37.592;2024-03-08T11:12:47;99089.47;;;-1.87;92.54
35443;BME280;21561;55.654;37.592;2024-03-08T11:15:15;99090.19;;;-1.91;93.04
35443;BME280;21561;55.654;37.592;2024-03-08T11:17:48;99076.81;;;-1.85;93.03
35443;BME280;21561;55.654;37.592;2024-03-08T11:20:17;99085.41;;;-1.82;93.12
35443;BME280;21561;55.654;37.592;2024-03-08T11:22:49;99076.31;;;-1.75;92.49
35443;BME280;21561;55.654;37.592;2024-03-08T11:33:27;99081.34;;;-1.77;93.04
35443;BME280;21561;55.654;37.592;2024-03-08T11:38:41;99074.44;;;-1.81;93.55
35443;BME280;21561;55.654;37.592;2024-03-08T11:41:10;99074.31;;;-1.84;93.45
35443;BME280;21561;55.654;37.592;2024-03-08T11:43:45;99074.63;;;-1.75;93.46
35443;BME280;21561;55.654;37.592;2024-03-08T11:46:16;99072.19;;;-1.71;93.53
35443;BME280;21561;55.654;37.592;2024-03-08T11:48:47;99077.34;;;-1.70;93.84
35443;BME280;21561;55.654;37.592;2024-03-08T11:51:15;99089.03;;;-1.75;93.53
35443;BME280;21561;55.654;37.592;2024-03-08T11:53:45;99085.63;;;-1.76;93.83
35443;BME280;21561;55.654;37.592;2024-03-08T11:56:14;99071.16;;;-1.77;94.09
35443;BME280;21561;55.654;37.592;2024-03-08T11:58:52;99075.69;;;-1.68;93.77
35443;BME280;21561;55.654;37.592;2024-03-08T12:01:20;99072.53;;;-1.61;93.80
35443;BME280;21561;55.654;37.592;2024-03-08T12:03:55;99067.84;;;-1.48;93.50
35443;BME280;21561;55.654;37.592;2024-03-08T12:06:26;99069.94;;;-1.35;92.68
35443;BME280;21561;55.654;37.592;2024-03-08T12:08:54;99075.03;;;-1.35;92.18
35443;BME280;21561;55.654;37.592;2024-03-08T12:11:21;99084.34;;;-1.36;92.00
35443;BME280;21561;55.654;37.592;2024-03-08T12:13:51;99064.78;;;-1.38;91.69
35443;BME280;21561;55.654;37.592;2024-03-08T12:16:18;99075.25;;;-1.29;91.49
35443;BME280;21561;55.654;37.592;2024-03-08T12:19:01;99067.16;;;-1.16;91.35
35443;BME280;21561;55.654;37.592;2024-03-08T12:21:32;99084.75;;;-1.23;91.43
35443;BME280;21561;55.654;37.592;2024-03-08T12:24:04;99078.19;;;-1.15;91.46
35443;BME280;21561;55.654;37.592;2024-03-08T12:26:31;99080.88;;;-1.10;90.93
35443;BME280;21561;55.654;37.592;2024-03-08T12:29:18;99067.03;;;-1.19;90.99
35443;BME280;21561;55.654;37.592;2024-03-08T12:31:53;99079.81;;;-1.17;90.73
35443;BME280;21561;55.654;37.592;2024-03-08T12:34:21;99061.47;;;-1.07;90.36
35443;BME280;21561;55.654;37.592;2024-03-08T12:36:49;99076.00;;;-1.03;90.14
35443;BME280;21561;55.654;37.592;2024-03-08T12:39:19;99079.78;;;-0.90;89.69
35443;BME280;21561;55.654;37.592;2024-03-08T12:41:54;99090.94;;;-0.86;89.04
35443;BME280;21561;55.654;37.592;2024-03-08T12:44:21;99074.63;;;-0.93;89.44
35443;BME280;21561;55.654;37.592;2024-03-08T12:46:49;99080.84;;;-0.83;89.54
35443;BME280;21561;55.654;37.592;2024-03-08T12:49:20;99084.56;;;-0.72;88.95
35443;BME280;21561;55.654;37.592;2024-03-08T12:51:50;99081.09;;;-0.74;87.95
35443;BME280;21561;55.654;37.592;2024-03-08T12:54:19;99080.09;;;-0.79;87.71
35443;BME280;21561;55.654;37.592;2024-03-08T12:56:50;99079.38;;;-0.75;87.94
35443;BME280;21561;55.654;37.592;2024-03-08T12:59:20;99076.97;;;-0.70;87.77
35443;BME280;21561;55.654;37.592;2024-03-08T13:01:48;99079.56;;;-0.69;87.82
35443;BME280;21561;55.654;37.592;2024-03-08T13:04:17;99076.09;;;-0.71;86.65
35443;BME280;21561;55.654;37.592;2024-03-08T13:06:45;99075.31;;;-0.70;86.57
35443;BME280;21561;55.654;37.592;2024-03-08T13:09:19;99078.78;;;-0.66;86.54